Time;durP1;ratioP1;P1;durP2;ratioP2;P2;SDS_P1;SDS_P2;PMS_P1;PMS_P2;Temp;Humidity;BMP_temperature;BMP_pressure;BME280_temperature;BME280_humidity;BME280_pressure;Samples;Min_cycle;Max_cycle;Signal;HPM_P1;HPM_P2
2022/06/14 00:01:39;;;;;;;5.75;2.00;;;;;;;9.22;77.50;99532.32;1748183;81;20900;-63
2022/06/14 00:04:24;;;;;;;5.97;2.35;;;;;;;9.22;77.50;99530.55;1746194;80;20946;-62
2022/06/14 00:07:09;;;;;;;5.67;2.30;;;;;;;9.24;77.68;99535.68;1741254;81;20935;-62
2022/06/14 00:09:36;;;;;;;6.70;2.60;;;;;;;9.23;77.88;99532.70;1748651;81;20879;-62
2022/06/14 00:12:04;;;;;;;7.93;2.13;;;;;;;9.22;77.88;99533.63;1742084;81;21438;-62
2022/06/14 00:14:30;;;;;;;6.40;2.15;;;;;;;9.22;77.89;99537.53;1753776;81;20898;-62
2022/06/14 00:16:57;;;;;;;9.73;2.58;;;;;;;9.19;77.96;99535.44;1744169;81;21446;-63
2022/06/14 00:19:23;;;;;;;4.92;1.82;;;;;;;9.19;78.06;99537.20;1747734;81;21039;-62
2022/06/14 00:21:50;;;;;;;10.03;2.15;;;;;;;9.18;78.18;99540.70;1753307;81;20896;-62
2022/06/14 00:24:17;;;;;;;6.50;2.30;;;;;;;9.15;78.26;99535.17;1746013;81;20954;-62
2022/06/14 00:26:43;;;;;;;5.22;2.33;;;;;;;9.15;78.26;99531.73;1751988;80;20961;-62
2022/06/14 00:29:10;;;;;;;4.60;1.90;;;;;;;9.15;78.24;99533.88;1747872;81;20919;-62
2022/06/14 00:31:37;;;;;;;6.95;2.10;;;;;;;9.15;78.39;99533.88;1742622;81;21060;-63
2022/06/14 00:34:04;;;;;;;4.70;1.70;;;;;;;9.13;78.42;99532.25;1743413;81;21046;-63
2022/06/14 00:36:34;;;;;;;6.22;2.60;;;;;;;9.12;78.54;99540.52;1743528;81;20945;-62
2022/06/14 00:39:05;;;;;;;7.80;2.45;;;;;;;9.10;78.60;99533.26;1742472;81;20997;-62
2022/06/14 00:41:45;;;;;;;7.62;2.15;;;;;;;9.10;78.71;99535.86;1747367;81;20921;-62
2022/06/14 00:44:17;;;;;;;6.67;2.00;;;;;;;9.07;78.77;99530.76;1743642;81;21874;-62
2022/06/14 00:47:09;;;;;;;4.47;1.90;;;;;;;9.06;78.76;99529.54;1733814;81;20954;-62
2022/06/14 00:49:53;;;;;;;7.87;2.22;;;;;;;9.05;78.86;99530.00;1731632;82;20943;-62
2022/06/14 00:52:28;;;;;;;6.97;1.95;;;;;;;9.04;78.93;99532.20;1731966;81;20884;-62
2022/06/14 00:54:59;;;;;;;6.05;2.30;;;;;;;9.02;79.08;99530.14;1734279;82;20911;-62
2022/06/14 00:57:40;;;;;;;7.90;1.85;;;;;;;9.00;79.13;99524.14;1735296;81;21446;-63
2022/06/14 01:00:15;;;;;;;5.75;1.98;;;;;;;8.98;79.23;99531.17;1733738;81;20963;-62
2022/06/14 01:02:56;;;;;;;4.85;1.42;;;;;;;9.00;79.32;99529.36;1728963;82;21524;-62
2022/06/14 01:06:05;;;;;;;7.20;2.25;;;;;;;8.97;79.37;99521.68;1737222;81;20972;-62
2022/06/14 01:08:03;;;;;;;10.08;2.70;;;;;;;8.98;79.45;99530.33;1738386;81;21132;-62
2022/06/14 01:10:33;;;;;;;8.53;2.27;;;;;;;9.00;79.59;99524.14;1740351;81;21497;-62
2022/06/14 01:13:03;;;;;;;5.95;1.77;;;;;;;9.01;79.74;99529.73;1741652;81;21510;-63
2022/06/14 01:15:33;;;;;;;7.85;1.50;;;;;;;9.04;79.84;99529.59;1738672;81;21135;-63
2022/06/14 01:18:04;;;;;;;6.97;1.85;;;;;;;9.10;79.96;99522.84;1737590;81;20962;-62
2022/06/14 01:20:32;;;;;;;3.70;1.60;;;;;;;9.14;79.94;99525.68;1741889;81;20911;-62
2022/06/14 01:23:00;;;;;;;4.17;1.90;;;;;;;9.17;80.07;99526.84;1738996;81;21131;-63
2022/06/14 01:25:31;;;;;;;5.85;2.00;;;;;;;9.21;80.07;99526.70;1734899;81;20909;-62
2022/06/14 01:28:01;;;;;;;4.78;1.70;;;;;;;9.21;80.07;99526.70;1739310;81;20930;-62
2022/06/14 01:30:32;;;;;;;8.25;1.80;;;;;;;9.22;80.12;99528.41;1736956;81;20888;-62
2022/06/14 01:33:19;;;;;;;4.20;1.55;;;;;;;9.21;80.21;99531.91;1724279;81;20938;-62
2022/06/14 01:35:50;;;;;;;4.85;1.40;;;;;;;9.21;80.32;99533.22;1736667;81;21178;-62
2022/06/14 01:38:18;;;;;;;4.53;1.80;;;;;;;9.20;80.40;99531.07;1740447;81;20891;-63
2022/06/14 01:41:20;;;;;;;3.40;1.30;;;;;;;9.19;80.41;99534.14;1738125;81;21001;-62
2022/06/14 01:44:11;;;;;;;5.25;1.70;;;;;;;9.20;80.56;99536.28;1741790;81;20943;-62
2022/06/14 01:47:13;;;;;;;3.72;1.40;;;;;;;9.21;80.64;99535.82;1735716;81;20895;-62
2022/06/14 01:52:53;;;;;;;6.35;2.02;;;;;;;9.32;80.95;99532.28;1732354;81;21497;-62
2022/06/14 01:55:46;;;;;;;5.58;1.72;;;;;;;9.41;81.06;99524.06;1739157;81;20963;-62
2022/06/14 01:58:45;;;;;;;5.92;1.37;;;;;;;9.48;81.07;99533.28;1732397;81;20975;-63
2022/06/14 02:01:46;;;;;;;6.95;2.10;;;;;;;9.51;81.09;99525.31;1730059;81;20987;-62
2022/06/14 02:04:39;;;;;;;3.17;1.17;;;;;;;9.56;81.14;99525.95;1729841;81;22502;-62
2022/06/14 02:07:47;;;;;;;5.62;1.82;;;;;;;9.62;81.24;99532.18;1735153;81;20944;-62
2022/06/14 02:10:28;;;;;;;6.25;1.90;;;;;;;9.64;81.30;99526.45;1737853;81;20963;-62
2022/06/14 02:13:06;;;;;;;3.25;1.40;;;;;;;9.69;81.33;99531.45;1738766;81;21432;-63
2022/06/14 02:15:43;;;;;;;7.42;1.25;;;;;;;9.73;81.42;99532.15;1736312;81;20915;-63
2022/06/14 02:18:40;;;;;;;4.72;1.60;;;;;;;9.75;81.45;99531.62;1736870;81;21077;-63
2022/06/14 02:21:12;;;;;;;3.35;1.27;;;;;;;9.79;81.51;99531.86;1702535;83;21032;-62
2022/06/14 02:23:53;;;;;;;7.45;1.95;;;;;;;9.81;81.53;99527.42;1700454;83;20953;-62
2022/06/14 02:26:33;;;;;;;4.87;1.77;;;;;;;9.81;81.52;99533.48;1699185;83;20965;-63
2022/06/14 02:29:14;;;;;;;6.42;2.27;;;;;;;9.83;81.59;99534.26;1702305;83;21522;-62
2022/06/14 02:31:55;;;;;;;3.25;1.30;;;;;;;9.86;81.75;99526.28;1702344;83;21098;-62
2022/06/14 02:34:27;;;;;;;4.30;1.85;;;;;;;9.90;81.76;99540.02;1699713;83;20926;-62
2022/06/14 02:37:23;;;;;;;4.08;1.82;;;;;;;9.92;81.82;99535.58;1700759;83;20981;-62
2022/06/14 02:40:03;;;;;;;7.20;2.25;;;;;;;9.97;81.93;99538.83;1700216;83;21082;-62
2022/06/14 02:42:41;;;;;;;6.03;1.50;;;;;;;10.07;81.99;99545.27;1702420;83;20993;-63
2022/06/14 02:45:18;;;;;;;5.47;1.50;;;;;;;10.15;81.99;99541.46;1699225;83;21129;-62
2022/06/14 02:47:50;;;;;;;7.42;1.52;;;;;;;10.22;82.02;99538.48;1704006;83;20983;-62
2022/06/14 02:50:22;;;;;;;8.45;1.42;;;;;;;10.30;82.12;99543.34;1712546;82;20925;-62
2022/06/14 02:53:09;;;;;;;5.53;1.50;;;;;;;10.39;82.11;99540.30;1709557;82;20983;-63
2022/06/14 02:55:50;;;;;;;3.45;1.40;;;;;;;10.51;82.17;99539.69;1711644;82;20982;-62
2022/06/14 02:58:52;;;;;;;4.17;1.32;;;;;;;10.63;82.16;99534.77;1743573;80;20937;-63
2022/06/14 03:01:57;;;;;;;5.25;1.25;;;;;;;10.71;82.11;99540.45;1757198;80;20917;-63
2022/06/14 03:04:47;;;;;;;6.80;1.50;;;;;;;10.74;82.14;99534.60;1759558;79;20976;-63
2022/06/14 03:08:10;;;;;;;5.83;1.50;;;;;;;10.80;82.15;99543.89;1762677;79;20933;-63
2022/06/14 03:11:12;;;;;;;5.37;1.42;;;;;;;10.84;82.13;99540.66;1751322;80;20939;-63
2022/06/14 03:14:36;;;;;;;4.15;1.17;;;;;;;10.88;82.13;99540.42;1756848;80;20955;-63
2022/06/14 03:18:04;;;;;;;4.62;1.67;;;;;;;10.87;81.98;99540.05;1761687;80;20909;-63
2022/06/14 03:21:18;;;;;;;4.20;1.30;;;;;;;10.87;81.98;99540.05;1757597;80;20961;-63
2022/06/14 03:23:58;;;;;;;7.83;1.67;;;;;;;10.88;82.09;99537.81;1756272;80;20893;-62
2022/06/14 03:26:48;;;;;;;6.62;1.30;;;;;;;10.96;82.22;99536.95;1765597;80;20992;-62
2022/06/14 03:29:23;;;;;;;3.60;1.40;;;;;;;11.10;82.26;99532.80;1756846;80;21946;-63
2022/06/14 03:32:01;;;;;;;4.45;1.20;;;;;;;11.18;82.18;99545.00;1763963;79;21297;-63
2022/06/14 03:34:40;;;;;;;6.83;1.22;;;;;;;11.23;82.10;99544.30;1768924;79;21495;-63
2022/06/14 03:37:08;;;;;;;6.90;1.82;;;;;;;11.19;82.21;99552.73;1757450;80;20905;-63
2022/06/14 03:39:43;;;;;;;4.30;1.45;;;;;;;11.19;82.21;99552.73;1757059;80;21472;-63
2022/06/14 03:42:12;;;;;;;4.72;1.45;;;;;;;11.20;82.12;99548.35;1757769;80;21092;-63
2022/06/14 03:44:40;;;;;;;8.33;2.45;;;;;;;11.11;82.15;99531.39;1760464;80;21000;-63
2022/06/14 03:47:21;;;;;;;7.17;2.40;;;;;;;11.19;82.29;99550.59;1755540;80;20911;-63
2022/06/14 03:50:02;;;;;;;8.78;1.70;;;;;;;11.37;82.24;99550.94;1762579;80;20901;-63
2022/06/14 03:52:56;;;;;;;6.45;1.50;;;;;;;11.37;82.24;99550.94;1712181;82;20921;-63
2022/06/14 03:55:50;;;;;;;6.65;2.08;;;;;;;11.43;82.19;99550.61;1721401;82;21979;-63
2022/06/14 03:58:31;;;;;;;6.03;1.75;;;;;;;11.50;82.10;99547.19;1711659;82;20906;-63
2022/06/14 04:01:14;;;;;;;7.20;1.87;;;;;;;11.60;82.08;99539.70;1713783;82;20909;-63
2022/06/14 04:04:10;;;;;;;4.00;1.50;;;;;;;11.73;82.57;99539.39;1714287;82;20959;-63
2022/06/14 04:06:57;;;;;;;5.37;1.57;;;;;;;11.95;81.98;99544.80;1710627;82;20941;-63
2022/06/14 04:09:46;;;;;;;5.55;1.67;;;;;;;12.55;82.49;99542.24;1645199;86;21200;-63
2022/06/14 04:12:45;;;;;;;6.40;1.50;;;;;;;13.26;82.37;99541.99;1648315;85;21004;-64
2022/06/14 04:15:37;;;;;;;5.30;1.85;;;;;;;14.68;83.58;99534.67;1646865;85;20906;-64
2022/06/14 04:21:00;;;;;;;9.18;2.30;;;;;;;18.20;81.22;99523.89;1631782;87;21049;-63
2022/06/14 04:23:40;;;;;;;8.68;1.90;;;;;;;19.27;79.42;99520.17;1608342;87;21065;-63
2022/06/14 04:26:32;;;;;;;7.10;2.02;;;;;;;19.80;78.97;99515.13;1631435;86;21007;-63
2022/06/14 04:29:19;;;;;;;4.45;1.77;;;;;;;19.92;77.09;99523.32;1636104;85;21586;-64
2022/06/14 04:32:02;;;;;;;8.78;2.67;;;;;;;20.24;76.71;99524.38;1641204;85;21006;-64
2022/06/14 04:34:34;;;;;;;6.78;1.85;;;;;;;20.40;77.07;99528.30;1644895;85;21628;-64
2022/06/14 04:37:24;;;;;;;3.77;1.50;;;;;;;20.59;72.96;99530.98;1643232;85;22105;-65
2022/06/14 04:40:05;;;;;;;5.60;2.10;;;;;;;20.18;73.71;99536.04;1555882;91;21074;-64
2022/06/14 04:42:52;;;;;;;6.55;1.70;;;;;;;20.16;73.76;99532.19;1555297;91;20926;-64
2022/06/14 04:45:36;;;;;;;5.35;1.72;;;;;;;19.50;73.63;99538.02;1552086;90;21020;-65
2022/06/14 04:48:07;;;;;;;7.30;1.98;;;;;;;20.17;75.85;99524.60;1600402;87;20966;-65
2022/06/14 04:50:41;;;;;;;6.42;2.30;;;;;;;19.99;71.40;99538.17;1603773;88;21634;-64
2022/06/14 04:53:18;;;;;;;6.40;1.87;;;;;;;19.01;70.79;99543.08;1597193;88;21644;-63
2022/06/14 04:56:01;;;;;;;7.70;2.83;;;;;;;18.19;71.13;99544.69;1601333;88;23880;-63
2022/06/14 04:58:42;;;;;;;5.10;1.70;;;;;;;17.20;70.94;99549.83;1596592;87;21026;-63
2022/06/14 05:01:16;;;;;;;6.17;1.52;;;;;;;16.52;70.59;99550.59;1597964;88;21062;-63
2022/06/14 05:03:55;;;;;;;6.25;1.75;;;;;;;15.76;70.82;99546.02;1600694;88;21992;-63
2022/06/14 05:06:49;;;;;;;8.85;2.35;;;;;;;15.36;71.46;99554.06;1606113;89;21078;-64
2022/06/14 05:09:21;;;;;;;7.33;2.12;;;;;;;15.19;71.54;99558.35;1598972;88;20963;-64
2022/06/14 05:12:17;;;;;;;11.20;2.35;;;;;;;15.14;71.07;99558.66;1577882;89;21041;-63
2022/06/14 05:14:54;;;;;;;7.53;2.25;;;;;;;15.57;72.26;99561.40;1579658;89;21039;-63
2022/06/14 05:17:41;;;;;;;7.33;2.20;;;;;;;16.20;71.29;99559.08;1605933;86;21100;-63
2022/06/14 05:20:31;;;;;;;;;;;;;;;16.42;70.41;99558.83;1585569;89;20996;-63
2022/06/14 05:23:27;;;;;;;6.85;1.40;;;;;;;16.03;69.82;99560.80;1586720;89;20102;-62
2022/06/14 05:26:26;;;;;;;8.13;2.27;;;;;;;15.65;70.16;99570.91;1615590;87;20995;-62
2022/06/14 05:29:16;;;;;;;8.65;2.52;;;;;;;15.34;70.07;99567.80;1633384;85;20971;-62
2022/06/14 05:32:04;;;;;;;9.20;1.72;;;;;;;15.15;70.62;99568.70;1635868;86;21815;-63
2022/06/14 05:35:13;;;;;;;15.23;2.95;;;;;;;14.97;70.16;99573.44;1633372;86;21066;-62
2022/06/14 05:38:07;;;;;;;7.17;1.90;;;;;;;14.74;70.48;99574.51;1631567;86;21582;-62
2022/06/14 05:40:57;;;;;;;12.58;2.58;;;;;;;15.70;71.37;99574.09;1626926;86;20973;-63
2022/06/14 05:43:31;;;;;;;6.65;2.20;;;;;;;15.82;69.74;99570.61;1634191;86;21000;-64
2022/06/14 05:46:09;;;;;;;9.58;2.72;;;;;;;15.45;69.28;99585.47;1613257;87;21151;-63
2022/06/14 05:48:52;;;;;;;9.58;2.25;;;;;;;15.15;69.76;99579.22;1610898;88;21000;-63
2022/06/14 05:51:24;;;;;;;6.20;2.20;;;;;;;14.86;69.98;99582.52;1604012;89;20998;-63
2022/06/14 05:54:19;;;;;;;5.90;2.33;;;;;;;14.63;69.87;99589.31;1597426;89;21559;-63
2022/06/14 05:57:07;;;;;;;5.67;1.65;;;;;;;14.27;69.99;99599.92;1615560;86;21575;-63
2022/06/14 05:59:47;;;;;;;6.65;2.40;;;;;;;13.90;70.04;99598.34;1648842;86;21051;-62
2022/06/14 06:02:35;;;;;;;9.15;2.20;;;;;;;13.70;70.26;99593.50;1648838;86;20995;-62
2022/06/14 06:05:30;;;;;;;7.42;1.90;;;;;;;13.68;70.74;99592.74;1614961;88;22392;-62
2022/06/14 06:08:08;;;;;;;8.45;1.98;;;;;;;13.81;70.87;99601.55;1660399;86;20990;-62
2022/06/14 06:10:39;;;;;;;8.68;2.12;;;;;;;14.12;71.22;99602.23;1665139;86;21493;-63
2022/06/14 06:13:29;;;;;;;8.33;2.62;;;;;;;14.54;71.39;99607.36;1647819;86;21309;-62
2022/06/14 06:16:09;;;;;;;9.75;1.90;;;;;;;15.09;70.89;99591.47;1663762;86;20912;-63
2022/06/14 06:18:59;;;;;;;7.87;2.10;;;;;;;15.49;70.14;99604.51;1649060;86;21002;-63
2022/06/14 06:21:53;;;;;;;5.60;1.90;;;;;;;15.76;70.23;99606.56;1613377;88;20927;-62
2022/06/14 06:24:30;;;;;;;6.75;2.20;;;;;;;16.09;70.04;99607.27;1611958;87;21005;-62
2022/06/14 06:27:02;;;;;;;9.33;2.40;;;;;;;16.60;70.27;99603.57;1602911;88;21003;-63
2022/06/14 06:29:49;;;;;;;4.95;1.72;;;;;;;16.65;69.00;99601.44;1649996;86;20996;-63
2022/06/14 06:32:18;;;;;;;6.33;1.95;;;;;;;16.11;67.19;99604.54;1657615;85;21407;-63
2022/06/14 06:34:47;;;;;;;5.17;2.00;;;;;;;15.99;68.19;99610.67;1650687;84;20906;-62
2022/06/14 06:37:22;;;;;;;6.80;1.35;;;;;;;16.71;68.74;99614.16;1697955;83;20888;-63
2022/06/14 06:40:09;;;;;;;3.75;1.62;;;;;;;17.28;65.55;99616.97;1688511;84;21048;-63
2022/06/14 06:42:59;;;;;;;7.75;1.70;;;;;;;17.56;65.82;99602.48;1691185;83;20934;-62
2022/06/14 06:45:32;;;;;;;8.40;1.60;;;;;;;18.45;66.43;99604.16;1690599;82;20942;-62
2022/06/14 06:48:07;;;;;;;5.28;1.50;;;;;;;18.51;64.68;99602.37;1689975;83;20928;-62
2022/06/14 06:50:43;;;;;;;6.67;1.65;;;;;;;18.17;63.91;99607.38;1720292;82;20888;-61
2022/06/14 06:53:17;;;;;;;5.97;1.73;;;;;;;17.62;63.79;99608.14;1737922;82;21091;-63
2022/06/14 06:56:13;;;;;;;3.67;1.47;;;;;;;16.80;63.76;99610.52;1723043;82;20938;-62
2022/06/14 06:58:53;;;;;;;5.72;1.52;;;;;;;17.50;64.32;99605.13;1735820;82;20979;-63
2022/06/14 07:01:27;;;;;;;5.60;1.80;;;;;;;17.50;64.32;99605.13;1731339;81;20942;-62
2022/06/14 07:04:14;;;;;;;4.75;1.50;;;;;;;17.09;64.09;99610.48;1734813;82;20967;-62
2022/06/14 07:06:56;;;;;;;6.50;2.12;;;;;;;17.51;65.81;99610.78;1727908;82;21054;-63
2022/06/14 07:09:41;;;;;;;8.00;1.85;;;;;;;18.62;64.05;99615.16;1728482;81;21438;-64
2022/06/14 07:12:15;;;;;;;5.55;1.47;;;;;;;18.64;60.47;99604.82;1723908;82;20969;-62
2022/06/14 07:14:56;;;;;;;5.37;1.35;;;;;;;18.01;57.78;99605.12;1711498;82;21002;-63
2022/06/14 07:17:43;;;;;;;4.00;1.42;;;;;;;17.47;60.07;99606.68;1716738;82;20973;-62
2022/06/14 07:20:30;;;;;;;6.47;1.40;;;;;;;16.69;60.22;99610.82;1717479;82;21108;-62
2022/06/14 07:23:38;;;;;;;4.87;1.60;;;;;;;15.99;60.89;99623.84;1721405;82;21053;-62
2022/06/14 07:26:16;;;;;;;4.30;1.40;;;;;;;15.20;61.60;99623.14;1740867;81;20903;-61
2022/06/14 07:29:00;;;;;;;7.78;1.98;;;;;;;14.76;62.23;99633.55;1722342;82;21970;-61
2022/06/14 07:32:07;;;;;;;11.60;1.85;;;;;;;14.69;62.73;99629.63;1670662;83;20921;-62
2022/06/14 07:34:35;;;;;;;2.95;1.05;;;;;;;15.02;62.82;99634.92;1732547;81;21070;-61
2022/06/14 07:37:12;;;;;;;4.85;1.40;;;;;;;14.94;62.36;99646.77;1720337;81;21480;-61
2022/06/14 07:39:56;;;;;;;5.30;1.70;;;;;;;14.73;61.84;99643.80;1729218;82;20902;-60
2022/06/14 07:42:47;;;;;;;4.60;1.40;;;;;;;14.38;62.28;99640.78;1699640;83;21106;-61
2022/06/14 07:45:35;;;;;;;4.95;1.57;;;;;;;14.35;62.50;99646.23;1695081;83;20928;-63
2022/06/14 07:48:35;;;;;;;7.72;1.75;;;;;;;14.48;63.38;99648.45;1709025;82;21038;-62
2022/06/14 07:51:21;;;;;;;5.40;1.85;;;;;;;14.85;63.19;99640.83;1694671;83;21510;-62
2022/06/14 07:54:08;;;;;;;5.03;1.57;;;;;;;15.18;62.95;99646.09;1725514;82;20965;-62
2022/06/14 07:56:40;;;;;;;6.75;1.72;;;;;;;15.17;62.73;99647.02;1716043;82;21463;-62
2022/06/14 07:59:12;;;;;;;4.95;1.42;;;;;;;15.15;62.75;99641.02;1719131;82;20926;-63
2022/06/14 08:01:55;;;;;;;4.72;1.87;;;;;;;15.19;63.02;99642.51;1720877;82;21080;-62
2022/06/14 08:04:36;;;;;;;5.35;1.05;;;;;;;15.41;63.39;99649.31;1719069;82;20910;-63
2022/06/14 08:07:10;;;;;;;5.20;1.30;;;;;;;15.42;62.41;99650.98;1716104;82;20898;-63
2022/06/14 08:09:45;;;;;;;4.28;1.60;;;;;;;15.36;62.98;99639.56;1718846;81;21854;-62
2022/06/14 08:12:27;;;;;;;8.50;1.30;;;;;;;15.05;61.87;99642.59;1720520;82;20957;-62
2022/06/14 08:15:13;;;;;;;2.65;1.07;;;;;;;14.92;61.21;99646.02;1721325;81;21055;-62
2022/06/14 08:18:00;;;;;;;4.07;1.70;;;;;;;14.92;62.24;99652.59;1717046;82;20928;-61
2022/06/14 08:20:46;;;;;;;3.87;1.25;;;;;;;14.87;61.68;99655.16;1725014;82;21618;-61
2022/06/14 08:23:25;;;;;;;5.28;1.70;;;;;;;14.87;62.12;99653.41;1713180;82;20909;-61
2022/06/14 08:25:57;;;;;;;4.92;1.65;;;;;;;14.74;61.86;99655.14;1734924;81;20927;-61
2022/06/14 08:28:35;;;;;;;4.12;1.20;;;;;;;14.74;62.01;99647.26;1687272;83;21047;-63
2022/06/14 08:31:14;;;;;;;4.45;1.55;;;;;;;14.68;62.34;99663.44;1706767;83;20951;-63
2022/06/14 08:34:06;;;;;;;7.35;2.17;;;;;;;14.54;62.22;99661.22;1695207;83;21454;-62
2022/06/14 08:36:44;;;;;;;6.87;1.92;;;;;;;14.41;62.48;99664.23;1697422;82;20948;-62
2022/06/14 08:39:20;;;;;;;8.23;1.50;;;;;;;14.40;63.12;99665.18;1686099;83;21075;-63
2022/06/14 08:42:07;;;;;;;5.42;1.72;;;;;;;15.19;63.95;99660.92;1695597;83;21906;-63
2022/06/14 08:44:59;;;;;;;8.03;2.20;;;;;;;15.44;62.94;99650.41;1729520;81;21012;-64
2022/06/14 08:48:03;;;;;;;4.15;1.20;;;;;;;15.32;62.67;99667.05;1717582;82;22041;-64
2022/06/14 08:51:07;;;;;;;4.25;1.22;;;;;;;14.98;62.09;99666.68;1726524;82;20933;-62
2022/06/14 08:54:01;;;;;;;4.08;1.12;;;;;;;14.86;62.26;99676.67;1723465;82;20973;-63
2022/06/14 08:56:38;;;;;;;2.60;1.10;;;;;;;14.70;61.70;99675.53;1728764;82;21953;-62
2022/06/14 08:59:30;;;;;;;5.12;1.05;;;;;;;14.71;62.63;99677.20;1752217;81;20915;-62
2022/06/14 09:02:35;;;;;;;6.15;1.75;;;;;;;14.93;62.23;99674.02;1726594;82;20910;-63
2022/06/14 09:05:40;;;;;;;9.35;5.30;;;;;;;15.23;62.51;99672.91;1728163;82;20910;-64
2022/06/14 09:08:53;;;;;;;3.50;1.60;;;;;;;16.01;62.17;99666.71;1723964;82;20922;-62
2022/06/14 09:11:51;;;;;;;4.08;1.20;;;;;;;16.01;62.17;99666.71;1728020;82;21046;-63
2022/06/14 09:14:56;;;;;;;4.72;1.02;;;;;;;15.84;61.41;99666.09;1713705;82;20843;-63
2022/06/14 09:18:20;;;;;;;2.55;0.95;;;;;;;15.72;61.15;99672.23;1707529;82;20946;-62
2022/06/14 09:21:13;;;;;;;2.35;0.90;;;;;;;15.86;61.70;99669.95;1728268;83;20935;-64
2022/06/14 09:24:14;;;;;;;4.85;1.27;;;;;;;16.06;61.57;99667.23;1696397;83;20958;-63
2022/06/14 09:26:57;;;;;;;1.92;0.80;;;;;;;16.26;61.81;99669.28;1699813;83;21539;-63
2022/06/14 09:30:02;;;;;;;8.38;1.40;;;;;;;16.97;61.84;99657.55;1692985;83;20894;-65
2022/06/14 09:35:51;;;;;;;3.75;1.07;;;;;;;18.23;60.91;99654.45;1709148;82;21534;-64
2022/06/14 09:38:50;;;;;;;5.90;1.25;;;;;;;18.83;60.12;99650.95;1711989;82;20983;-65
2022/06/14 09:41:45;;;;;;;3.77;1.10;;;;;;;18.61;59.51;99645.23;1672558;85;21488;-64
2022/06/14 09:44:39;;;;;;;5.03;0.82;;;;;;;18.41;58.80;99655.63;1666934;84;21514;-64
2022/06/14 09:47:26;;;;;;;2.35;0.95;;;;;;;17.62;55.87;99660.11;1661800;84;20913;-64
2022/06/14 09:50:25;;;;;;;2.37;0.82;;;;;;;16.71;56.15;99663.42;1660568;84;21009;-64
2022/06/14 09:53:06;;;;;;;6.45;1.10;;;;;;;16.19;55.51;99658.83;1665633;85;21029;-64
2022/06/14 09:55:41;;;;;;;3.08;0.70;;;;;;;16.07;56.49;99658.37;1587768;89;21075;-64
2022/06/14 09:58:33;;;;;;;4.42;0.80;;;;;;;16.44;56.80;99662.31;1586142;88;21004;-63
2022/06/14 10:01:28;;;;;;;4.40;0.70;;;;;;;16.99;55.59;99668.35;1593892;88;22022;-64
2022/06/14 10:04:17;;;;;;;5.62;1.07;;;;;;;17.57;56.07;99663.09;1588093;88;21530;-64
2022/06/14 10:07:01;;;;;;;3.12;0.90;;;;;;;17.61;56.90;99653.96;1550345;91;21049;-64
2022/06/14 10:09:52;;;;;;;5.80;1.27;;;;;;;17.38;54.79;99668.10;1551778;91;21545;-64
2022/06/14 10:12:54;;;;;;;3.67;0.70;;;;;;;16.99;55.99;99670.98;1542859;91;21079;-64
2022/06/14 10:15:59;;;;;;;5.45;1.10;;;;;;;16.82;55.98;99673.21;1550457;91;20992;-63
2022/06/14 10:18:50;;;;;;;4.65;1.10;;;;;;;16.65;56.08;99680.53;1528870;90;20942;-63
2022/06/14 10:21:25;;;;;;;3.72;1.00;;;;;;;16.95;56.89;99679.27;1521582;91;21118;-63
2022/06/14 10:24:39;;;;;;;2.52;0.88;;;;;;;17.00;55.73;99671.86;1535304;91;21127;-64
2022/06/14 10:30:55;;;;;;;4.70;1.52;;;;;;;16.43;55.68;99681.72;1480643;96;21505;-63
2022/06/14 10:33:35;;;;;;;6.97;0.90;;;;;;;16.42;56.02;99681.36;1550892;91;21622;-63
2022/06/14 10:36:37;;;;;;;10.32;1.60;;;;;;;17.07;54.89;99673.06;1573192;89;20978;-63
2022/06/14 10:39:43;;;;;;;3.90;1.10;;;;;;;17.53;55.66;99669.59;1504587;94;21916;-65
2022/06/14 10:42:48;;;;;;;5.97;1.17;;;;;;;17.65;54.94;99660.70;1514205;92;21056;-63
2022/06/14 10:45:26;;;;;;;4.17;1.20;;;;;;;17.49;55.35;99660.20;1633291;86;21688;-64
2022/06/14 10:48:12;;;;;;;8.45;1.12;;;;;;;17.49;55.35;99665.48;1629159;87;20938;-63
2022/06/14 10:51:02;;;;;;;3.58;1.12;;;;;;;17.89;55.91;99651.84;1625837;86;21552;-63
2022/06/14 10:53:34;;;;;;;4.25;1.20;;;;;;;18.42;55.55;99662.58;1581018;90;22062;-64
2022/06/14 10:56:21;;;;;;;4.97;1.57;;;;;;;18.48;55.38;99659.43;1576854;90;20948;-63
2022/06/14 10:58:59;;;;;;;;;;;;;;;18.38;55.04;99663.80;1582821;90;20990;-63
2022/06/14 11:02:05;;;;;;;4.62;1.00;;;;;;;18.24;54.10;99669.36;1572849;90;20114;-64
2022/06/14 11:04:49;;;;;;;5.58;0.90;;;;;;;17.67;53.53;99670.67;1576110;89;20947;-64
2022/06/14 11:07:49;;;;;;;3.65;0.95;;;;;;;17.07;53.78;99678.34;1573963;90;21909;-63
2022/06/14 11:10:33;;;;;;;9.40;1.27;;;;;;;17.17;54.31;99679.34;1581054;90;20984;-63
2022/06/14 11:13:40;;;;;;;4.65;1.35;;;;;;;17.61;54.89;99675.08;1567756;91;21044;-64
2022/06/14 11:16:30;;;;;;;11.35;1.50;;;;;;;17.78;53.85;99672.94;1598947;86;20977;-63
2022/06/14 11:19:10;;;;;;;4.85;1.12;;;;;;;17.57;53.98;99688.17;1632143;86;21026;-63
2022/06/14 11:21:53;;;;;;;1.80;0.90;;;;;;;17.78;54.70;99688.78;1610594;88;22212;-64
2022/06/14 11:24:34;;;;;;;4.92;1.67;;;;;;;17.90;54.11;99690.52;1611076;88;21459;-63
2022/06/14 11:27:09;;;;;;;4.78;1.07;;;;;;;18.11;54.33;99675.60;1611711;88;21506;-63
2022/06/14 11:30:13;;;;;;;6.35;1.20;;;;;;;18.07;53.50;99684.75;1697947;81;20955;-62
2022/06/14 11:33:18;;;;;;;3.12;0.90;;;;;;;17.60;53.38;99698.50;1733336;81;21462;-61
2022/06/14 11:36:08;;;;;;;3.02;0.95;;;;;;;17.31;52.97;99695.91;1679504;84;20971;-62
2022/06/14 11:38:45;;;;;;;3.50;0.95;;;;;;;17.27;53.80;99690.02;1679080;84;21020;-62
2022/06/14 11:41:15;;;;;;;8.83;1.52;;;;;;;17.40;53.96;99698.70;1676846;84;20917;-63
2022/06/14 11:44:07;;;;;;;4.30;1.17;;;;;;;17.41;53.65;99706.97;1681083;84;21447;-62
2022/06/14 11:47:02;;;;;;;2.35;1.20;;;;;;;17.27;52.81;99697.94;1684952;84;20918;-62
2022/06/14 11:49:37;;;;;;;5.90;1.40;;;;;;;17.05;53.60;99706.62;1678776;84;21097;-65
2022/06/14 11:52:46;;;;;;;7.35;1.40;;;;;;;16.81;53.61;99709.77;1656633;85;20899;-63
2022/06/14 11:55:26;;;;;;;4.53;0.93;;;;;;;16.78;54.02;99695.85;1653318;86;20922;-63
2022/06/14 11:58:12;;;;;;;6.78;1.37;;;;;;;16.72;53.88;99709.91;1655307;85;21065;-62
2022/06/14 12:01:08;;;;;;;4.33;0.93;;;;;;;16.59;53.89;99709.97;1628532;87;21028;-63
2022/06/14 12:03:43;;;;;;;3.27;0.65;;;;;;;16.38;53.34;99724.68;1660290;85;21057;-63
2022/06/14 12:06:33;;;;;;;1.82;0.90;;;;;;;16.29;53.81;99707.25;1657863;85;20964;-63
2022/06/14 12:09:44;;;;;;;3.17;0.90;;;;;;;16.76;54.26;99717.52;1635611;85;20981;-64
2022/06/14 12:12:34;;;;;;;4.70;0.90;;;;;;;17.22;53.63;99708.86;1688513;83;22127;-64
2022/06/14 12:15:16;;;;;;;4.05;1.30;;;;;;;16.95;53.00;99716.19;1697097;83;21557;-63
2022/06/14 12:17:55;;;;;;;4.28;0.82;;;;;;;16.74;53.44;99711.48;1695841;83;21043;-63
2022/06/14 12:20:25;;;;;;;4.92;1.22;;;;;;;16.62;53.78;99727.36;1698716;83;20993;-63
2022/06/14 12:23:18;;;;;;;15.03;1.22;;;;;;;16.50;53.88;99729.09;1700235;83;20877;-64
2022/06/14 12:29:14;;;;;;;5.28;1.55;;;;;;;16.96;54.77;99723.13;1698072;83;20948;-63
2022/06/14 12:32:11;;;;;;;1.98;1.02;;;;;;;17.27;54.86;99723.01;1701485;83;20997;-63
2022/06/14 12:34:47;;;;;;;2.58;1.05;;;;;;;17.31;54.29;99724.93;1696559;83;21002;-63
2022/06/14 12:37:28;;;;;;;2.55;0.80;;;;;;;17.22;53.65;99729.97;1697582;83;20967;-63
2022/06/14 12:40:22;;;;;;;5.55;1.42;;;;;;;17.32;53.29;99731.91;1695836;83;21507;-63
2022/06/14 12:43:00;;;;;;;10.82;1.37;;;;;;;17.14;53.21;99728.38;1696188;83;20926;-63
2022/06/14 12:45:47;;;;;;;3.98;1.00;;;;;;;17.14;53.97;99731.47;1698377;83;21877;-63
2022/06/14 12:48:31;;;;;;;;;;;;;;;17.57;53.90;99723.81;1700257;83;20885;-63
2022/06/14 12:51:14;;;;;;;4.15;1.00;;;;;;;17.51;53.50;99713.73;1707827;81;20101;-63
2022/06/14 12:54:17;;;;;;;6.00;1.22;;;;;;;17.40;53.34;99730.86;1721921;81;20940;-63
2022/06/14 12:56:55;;;;;;;10.68;1.87;;;;;;;17.42;53.39;99721.88;1721855;81;20984;-63
2022/06/14 12:59:35;;;;;;;4.00;1.25;;;;;;;17.38;53.52;99734.08;1729690;81;21101;-64
2022/06/14 13:02:47;;;;;;;7.03;1.30;;;;;;;17.40;53.42;99736.14;1700015;82;20953;-63
2022/06/14 13:05:19;;;;;;;3.85;1.05;;;;;;;17.22;53.54;99735.25;1658350;85;20972;-63
2022/06/14 13:07:59;;;;;;;5.97;1.12;;;;;;;17.29;54.04;99729.50;1681224;83;21011;-63
2022/06/14 13:10:39;;;;;;;5.00;1.27;;;;;;;17.66;54.22;99720.46;1688302;84;21524;-63
2022/06/14 13:13:53;;;;;;;7.40;1.40;;;;;;;17.67;53.15;99722.16;1685573;83;20952;-63
2022/06/14 13:16:49;;;;;;;3.20;0.90;;;;;;;17.63;53.53;99728.62;1663362;84;21027;-64